createdAt,value
2015-02-13T00:00:18.268Z,101047
2015-02-13T00:00:36.974Z,101050
2015-02-13T00:00:55.739Z,101056
2015-02-13T00:01:07.786Z,101053
2015-02-13T00:01:19.802Z,101050
2015-02-13T00:01:31.977Z,101059
2015-02-13T00:01:44.039Z,101056
2015-02-13T00:01:56.227Z,101056
2015-02-13T00:02:14.961Z,101059
2015-02-13T00:02:27.039Z,101059
2015-02-13T00:02:39.088Z,101056
2015-02-13T00:02:51.244Z,101042
2015-02-13T00:03:03.354Z,101056
2015-02-13T00:03:15.385Z,101056
2015-02-13T00:03:27.447Z,101059
2015-02-13T00:03:39.528Z,101056
2015-02-13T00:03:51.653Z,101050
2015-02-13T00:04:03.794Z,101059
2015-02-13T00:04:15.794Z,101050
2015-02-13T00:04:27.903Z,101047
2015-02-13T00:04:40.030Z,101050
2015-02-13T00:04:52.171Z,101056
2015-02-13T00:05:10.905Z,101056
2015-02-13T00:05:23.015Z,101042
2015-02-13T00:05:41.767Z,101042
2015-02-13T00:05:53.845Z,101050
2015-02-13T00:06:05.954Z,101045
2015-02-13T00:06:24.657Z,101042
2015-02-13T00:06:43.378Z,101044
2015-02-13T00:07:02.081Z,101047
2015-02-13T00:07:20.769Z,101039
2015-02-13T00:07:32.881Z,101050
2015-02-13T00:07:44.944Z,101044
2015-02-13T00:07:57.022Z,101045
2015-02-13T00:08:09.131Z,101042
2015-02-13T00:08:21.209Z,101045
2015-02-13T00:08:46.524Z,101039
2015-02-13T00:08:58.680Z,101042
2015-02-13T00:09:10.758Z,101053
2015-02-13T00:09:22.789Z,101047
2015-02-13T00:09:48.136Z,101044
2015-02-13T00:10:00.261Z,101044
2015-02-13T00:10:12.417Z,101050
2015-02-13T00:10:24.449Z,101047
2015-02-13T00:10:36.560Z,101047
2015-02-13T00:10:48.669Z,101047
2015-02-13T00:11:07.373Z,101047
2015-02-13T00:11:19.888Z,101047
2015-02-13T00:11:38.641Z,101053
2015-02-13T00:11:57.313Z,101041
2015-02-13T00:12:09.688Z,101044
2015-02-13T00:12:21.782Z,101050
2015-02-13T00:12:33.893Z,101047
2015-02-13T00:12:45.956Z,101056
2015-02-13T00:13:17.893Z,101041
2015-02-13T00:13:29.987Z,101047
2015-02-13T00:13:42.051Z,101036
2015-02-13T00:13:54.098Z,101047
2015-02-13T00:14:06.223Z,101044
2015-02-13T00:14:18.333Z,101047
2015-02-13T00:14:37.007Z,101047
2015-02-13T00:14:49.132Z,101033
2015-02-13T00:15:01.272Z,101039
2015-02-13T00:15:19.944Z,101036
2015-02-13T00:15:32.022Z,101044
2015-02-13T00:15:44.087Z,101047
2015-02-13T00:15:56.165Z,101042
2015-02-13T00:16:08.259Z,101053
2015-02-13T00:16:20.368Z,101036
2015-02-13T00:16:39.089Z,101036
2015-02-13T00:16:51.167Z,101042
2015-02-13T00:17:09.807Z,101044
2015-02-13T00:17:21.854Z,101036
2015-02-13T00:17:34.045Z,101047
2015-02-13T00:17:46.092Z,101042
2015-02-13T00:18:04.795Z,101039
2015-02-13T00:18:16.920Z,101044
2015-02-13T00:18:29.092Z,101036
2015-02-13T00:18:41.172Z,101042
2015-02-13T00:18:53.219Z,101036
2015-02-13T00:19:18.562Z,101041
2015-02-13T00:19:30.703Z,101039
2015-02-13T00:19:49.408Z,101050
2015-02-13T00:20:01.471Z,101036
2015-02-13T00:20:20.033Z,101039
2015-02-13T00:20:32.049Z,101033
2015-02-13T00:20:44.099Z,101053
2015-02-13T00:20:56.255Z,101039
2015-02-13T00:21:08.349Z,101039
2015-02-13T00:21:20.317Z,101036
2015-02-13T00:21:32.396Z,101039
2015-02-13T00:21:44.507Z,101039
2015-02-13T00:21:56.554Z,101062
2015-02-13T00:22:08.648Z,101039
2015-02-13T00:22:27.335Z,101047
2015-02-13T00:22:39.338Z,101044
2015-02-13T00:22:51.494Z,101044
2015-02-13T00:23:03.604Z,101050
2015-02-13T00:23:22.322Z,101039
2015-02-13T00:23:41.059Z,101044
2015-02-13T00:23:59.793Z,101050
2015-02-13T00:24:11.824Z,101044
2015-02-13T00:24:30.543Z,101047
2015-02-13T00:24:42.655Z,101044
2015-02-13T00:24:54.811Z,101033
2015-02-13T00:25:06.905Z,101047
2015-02-13T00:25:19.092Z,101039
2015-02-13T00:25:31.170Z,101024
2015-02-13T00:25:43.235Z,101036
2015-02-13T00:25:55.344Z,101039
2015-02-13T00:26:14.032Z,101030
2015-02-13T00:26:32.578Z,101041
2015-02-13T00:26:44.675Z,101050
2015-02-13T00:26:56.800Z,101036
2015-02-13T00:27:08.847Z,101044
2015-02-13T00:27:20.878Z,101039
2015-02-13T00:27:32.988Z,101044
2015-02-13T00:27:45.053Z,101036
2015-02-13T00:27:57.209Z,101036
2015-02-13T00:28:15.913Z,101044
2015-02-13T00:28:27.959Z,101036
2015-02-13T00:28:40.007Z,101041
2015-02-13T00:28:52.070Z,101039
2015-02-13T00:29:04.195Z,101039
2015-02-13T00:29:16.242Z,101039
2015-02-13T00:29:28.273Z,101036
2015-02-13T00:29:40.370Z,101039
2015-02-13T00:29:52.417Z,101036
2015-02-13T00:30:04.495Z,101044
2015-02-13T00:30:16.542Z,101039
2015-02-13T00:30:28.542Z,101027
2015-02-13T00:30:41.434Z,101033
2015-02-13T00:30:53.622Z,101024
2015-02-13T00:31:05.747Z,101036
2015-02-13T00:31:24.497Z,101033
2015-02-13T00:31:36.499Z,101033
2015-02-13T00:31:48.639Z,101039
2015-02-13T00:32:00.655Z,101039
2015-02-13T00:32:12.780Z,101030
2015-02-13T00:32:24.874Z,101030
2015-02-13T00:32:36.970Z,101036
2015-02-13T00:32:49.111Z,101039
2015-02-13T00:33:07.861Z,101036
2015-02-13T00:33:19.861Z,101027
2015-02-13T00:33:32.002Z,101033
2015-02-13T00:33:44.129Z,101036
2015-02-13T00:33:56.238Z,101030
2015-02-13T00:34:14.941Z,101041
2015-02-13T00:34:33.644Z,101039
2015-02-13T00:34:45.787Z,101036
2015-02-13T00:34:57.912Z,101038
2015-02-13T00:35:10.053Z,101030
2015-02-13T00:35:22.115Z,101033
2015-02-13T00:35:34.178Z,101033
2015-02-13T00:35:46.227Z,101033
2015-02-13T00:35:58.306Z,101036
2015-02-13T00:36:10.337Z,101033
2015-02-13T00:36:22.431Z,101027
2015-02-13T00:36:34.524Z,101036
2015-02-13T00:36:53.261Z,101024
2015-02-13T00:37:05.339Z,101030
2015-02-13T00:37:24.058Z,101033
2015-02-13T00:37:36.089Z,101030
2015-02-13T00:37:48.153Z,101030
2015-02-13T00:38:06.872Z,101033
2015-02-13T00:38:18.950Z,101027
2015-02-13T00:38:31.028Z,101021
2015-02-13T00:38:43.124Z,101018
2015-02-13T00:39:01.952Z,101033
2015-02-13T00:39:20.624Z,101033
2015-02-13T00:39:32.749Z,101030
2015-02-13T00:39:44.830Z,101030
2015-02-13T00:39:56.877Z,101030
2015-02-13T00:40:15.674Z,101027
2015-02-13T00:40:27.752Z,101024
2015-02-13T00:40:46.442Z,101039
2015-02-13T00:40:58.582Z,101021
2015-02-13T00:41:17.317Z,101027
2015-02-13T00:41:29.410Z,101036
2015-02-13T00:41:48.085Z,101033
2015-02-13T00:42:00.163Z,101018
2015-02-13T00:42:12.257Z,101027
2015-02-13T00:42:24.351Z,101033
2015-02-13T00:42:36.429Z,101027
2015-02-13T00:42:48.587Z,101033
2015-02-13T00:43:00.681Z,101030
2015-02-13T00:43:12.759Z,101033
2015-02-13T00:43:24.790Z,101036
2015-02-13T00:43:36.853Z,101036
2015-02-13T00:43:55.495Z,101024
2015-02-13T00:44:07.636Z,101027
2015-02-13T00:44:19.745Z,101021
2015-02-13T00:44:31.808Z,101033
2015-02-13T00:44:43.873Z,101024
2015-02-13T00:44:55.920Z,101030
2015-02-13T00:45:08.030Z,101024
2015-02-13T00:45:20.155Z,101024
2015-02-13T00:45:38.875Z,101030
2015-02-13T00:45:57.563Z,101024
2015-02-13T00:46:09.625Z,101036
2015-02-13T00:46:28.375Z,101036
2015-02-13T00:46:47.112Z,101036
2015-02-13T00:46:59.174Z,101036
2015-02-13T00:47:11.252Z,101033
2015-02-13T00:47:23.315Z,101033
2015-02-13T00:47:35.456Z,101021
2015-02-13T00:47:54.209Z,101024
2015-02-13T00:48:06.209Z,101030
2015-02-13T00:48:18.287Z,101021
2015-02-13T00:48:30.396Z,101033
2015-02-13T00:48:42.539Z,101027
2015-02-13T00:48:54.664Z,101024
2015-02-13T00:49:13.367Z,101027
2015-02-13T00:49:32.070Z,101024
2015-02-13T00:49:44.213Z,101036
2015-02-13T00:49:56.322Z,101018
2015-02-13T00:50:08.431Z,101033
2015-02-13T00:50:27.150Z,101033
2015-02-13T00:50:39.324Z,101030
2015-02-13T00:50:51.402Z,101027
2015-02-13T00:51:03.527Z,101038
2015-02-13T00:51:15.730Z,101038
2015-02-13T00:51:34.386Z,101030
2015-02-13T00:51:46.436Z,101018
2015-02-13T00:51:58.452Z,101035
2015-02-13T00:52:17.108Z,101030
2015-02-13T00:52:29.171Z,101033
2015-02-13T00:52:41.251Z,101024
2015-02-13T00:52:59.923Z,101033
2015-02-13T00:53:11.985Z,101024
2015-02-13T00:53:30.626Z,101036
2015-02-13T00:53:42.737Z,101035
2015-02-13T00:53:54.800Z,101024
2015-02-13T00:54:06.925Z,101036
2015-02-13T00:54:18.987Z,101030
2015-02-13T00:54:37.646Z,101030
2015-02-13T00:54:56.381Z,101033
2015-02-13T00:55:15.162Z,101027
2015-02-13T00:55:27.303Z,101027
2015-02-13T00:55:39.430Z,101018
2015-02-13T00:55:51.461Z,101024
2015-02-13T00:56:03.570Z,101030
2015-02-13T00:56:22.336Z,101030
2015-02-13T00:56:34.383Z,101030
2015-02-13T00:56:46.432Z,101024
2015-02-13T00:56:58.479Z,101024
2015-02-13T00:57:10.635Z,101027
2015-02-13T00:57:22.854Z,101016
2015-02-13T00:57:41.496Z,101027
2015-02-13T00:58:00.762Z,101024
2015-02-13T00:58:15.262Z,101018
2015-02-13T00:58:28.106Z,101024
2015-02-13T00:58:40.186Z,101024
2015-02-13T00:58:52.248Z,101016
2015-02-13T00:59:04.373Z,101021
2015-02-13T00:59:16.389Z,101036
2015-02-13T00:59:28.451Z,101024
2015-02-13T00:59:40.564Z,101030
2015-02-13T00:59:52.673Z,101018
2015-02-13T01:00:11.376Z,101036
2015-02-13T01:00:23.486Z,101024
2015-02-13T01:00:35.532Z,101021
2015-02-13T01:00:47.597Z,101027
2015-02-13T01:00:59.738Z,101024
2015-02-13T01:01:11.831Z,101024
2015-02-13T01:01:30.550Z,101024
2015-02-13T01:01:42.662Z,101027
2015-02-13T01:02:01.319Z,101024
2015-02-13T01:02:13.428Z,101021
2015-02-13T01:02:32.116Z,101024
2015-02-13T01:02:44.211Z,101024
2015-02-13T01:02:56.321Z,101027
2015-02-13T01:03:08.414Z,101030
2015-02-13T01:03:20.539Z,101027
2015-02-13T01:03:32.586Z,101021
2015-02-13T01:03:44.682Z,101021
2015-02-13T01:03:56.807Z,101021
2015-02-13T01:04:08.901Z,101013
2015-02-13T01:04:27.651Z,101019
2015-02-13T01:04:39.760Z,101013
2015-02-13T01:04:51.966Z,101024
2015-02-13T01:05:04.044Z,101027
2015-02-13T01:05:22.763Z,101030
2015-02-13T01:05:41.515Z,101027
2015-02-13T01:05:53.640Z,101021
2015-02-13T01:06:12.375Z,101030
2015-02-13T01:06:24.468Z,101033
2015-02-13T01:06:36.609Z,101021
2015-02-13T01:06:48.752Z,101036
2015-02-13T01:07:00.877Z,101024
2015-02-13T01:07:19.611Z,101036
2015-02-13T01:07:31.705Z,101033
2015-02-13T01:07:43.800Z,101024
2015-02-13T01:07:55.894Z,101024
2015-02-13T01:08:08.019Z,101021
2015-02-13T01:08:20.191Z,101019
2015-02-13T01:08:32.629Z,101021
2015-02-13T01:08:44.756Z,101019
2015-02-13T01:08:56.818Z,101021
2015-02-13T01:09:15.631Z,101027
2015-02-13T01:09:27.693Z,101030
2015-02-13T01:09:39.787Z,101021
2015-02-13T01:09:51.930Z,101024
2015-02-13T01:10:04.024Z,101027
2015-02-13T01:10:16.165Z,101027
2015-02-13T01:10:34.915Z,101024
2015-02-13T01:10:47.090Z,101033
2015-02-13T01:10:59.215Z,101024
2015-02-13T01:11:11.262Z,101024
2015-02-13T01:11:29.949Z,101033
2015-02-13T01:11:42.076Z,101030
2015-02-13T01:11:54.170Z,101027
2015-02-13T01:12:06.639Z,101030
2015-02-13T01:12:18.654Z,101024
2015-02-13T01:12:30.826Z,101019
2015-02-13T01:12:43.000Z,101019
2015-02-13T01:12:55.078Z,101021
2015-02-13T01:13:07.172Z,101019
2015-02-13T01:13:19.312Z,101030
2015-02-13T01:13:31.375Z,101030
2015-02-13T01:13:50.549Z,101019
2015-02-13T01:14:09.283Z,101027
2015-02-13T01:14:28.033Z,101021
2015-02-13T01:14:40.143Z,101021
2015-02-13T01:14:52.224Z,101021
2015-02-13T01:15:04.224Z,101019
2015-02-13T01:15:16.302Z,101024
2015-02-13T01:15:28.380Z,101019
2015-02-13T01:15:40.489Z,101010
2015-02-13T01:15:52.507Z,101013
2015-02-13T01:16:04.616Z,101024
2015-02-13T01:16:16.648Z,101007
2015-02-13T01:16:35.304Z,101007
2015-02-13T01:16:47.322Z,101019
2015-02-13T01:16:59.401Z,101010
2015-02-13T01:17:18.119Z,101016
2015-02-13T01:17:36.744Z,101019
2015-02-13T01:17:55.434Z,101013
2015-02-13T01:18:14.121Z,101007
2015-02-13T01:18:26.184Z,101013
2015-02-13T01:18:38.231Z,101013
2015-02-13T01:18:56.936Z,101016
2015-02-13T01:19:09.061Z,101013
2015-02-13T01:19:21.201Z,101013
2015-02-13T01:19:39.936Z,101030
2015-02-13T01:19:52.048Z,101018
2015-02-13T01:20:04.314Z,101021
2015-02-13T01:20:16.439Z,101018
2015-02-13T01:20:28.579Z,101016
2015-02-13T01:20:47.298Z,101019
2015-02-13T01:20:59.441Z,101010
2015-02-13T01:21:18.128Z,101019
2015-02-13T01:21:36.831Z,101013
2015-02-13T01:21:55.474Z,101010
2015-02-13T01:23:04.664Z,101010
2015-02-13T01:23:16.742Z,101010
2015-02-13T01:23:29.164Z,101004
2015-02-13T01:23:47.898Z,101004
2015-02-13T01:24:00.042Z,101007
2015-02-13T01:24:12.135Z,101010
2015-02-13T01:24:30.823Z,101007
2015-02-13T01:24:42.963Z,101016
2015-02-13T01:24:55.059Z,101010
2015-02-13T01:25:13.762Z,101010
2015-02-13T01:25:25.856Z,101007
2015-02-13T01:25:37.934Z,101004
2015-02-13T01:25:50.028Z,101007
2015-02-13T01:26:02.139Z,100998
2015-02-13T01:26:14.280Z,101001
2015-02-13T01:26:26.405Z,101001
2015-02-13T01:26:38.514Z,101001
2015-02-13T01:26:50.530Z,101004
2015-02-13T01:27:09.236Z,101004
2015-02-13T01:27:21.314Z,101004
2015-02-13T01:27:39.955Z,101004
2015-02-13T01:27:51.986Z,101004
2015-02-13T01:28:04.113Z,101007
2015-02-13T01:28:22.816Z,101007
2015-02-13T01:28:34.988Z,101010
2015-02-13T01:28:53.707Z,100998
2015-02-13T01:29:05.881Z,101007
2015-02-13T01:29:17.959Z,101004
2015-02-13T01:29:30.006Z,100990
2015-02-13T01:29:42.131Z,100996
2015-02-13T01:29:54.256Z,101004
2015-02-13T01:30:06.384Z,101007
2015-02-13T01:30:18.556Z,100985
2015-02-13T01:30:30.712Z,100996
2015-02-13T01:30:42.852Z,101007
2015-02-13T01:30:54.884Z,101001
2015-02-13T01:31:07.011Z,101001
2015-02-13T01:31:19.136Z,101007
2015-02-13T01:31:31.229Z,101004
2015-02-13T01:31:43.370Z,101004
2015-02-13T01:31:55.464Z,101001
2015-02-13T01:32:07.482Z,101004
2015-02-13T01:32:19.561Z,101004
2015-02-13T01:32:31.639Z,101007
2015-02-13T01:32:43.764Z,101007
2015-02-13T01:32:55.889Z,101004
2015-02-13T01:33:07.938Z,100996
2015-02-13T01:33:20.063Z,101004
2015-02-13T01:33:32.109Z,100998
2015-02-13T01:33:50.750Z,101013
2015-02-13T01:34:02.846Z,101013
2015-02-13T01:34:14.908Z,101001
2015-02-13T01:34:27.002Z,101013
2015-02-13T01:34:39.065Z,101004
2015-02-13T01:34:51.174Z,101010
2015-02-13T01:35:03.239Z,101004
2015-02-13T01:35:15.364Z,101019
2015-02-13T01:35:34.005Z,101007
2015-02-13T01:35:52.693Z,101007
2015-02-13T01:36:04.773Z,101001
2015-02-13T01:36:16.851Z,101004
2015-02-13T01:36:28.960Z,101001
2015-02-13T01:36:41.023Z,101001
2015-02-13T01:36:53.023Z,101004
2015-02-13T01:37:05.103Z,101007
2015-02-13T01:37:23.775Z,100993
2015-02-13T01:37:35.900Z,100998
2015-02-13T01:37:47.978Z,100993
2015-02-13T01:38:13.245Z,101001
2015-02-13T01:38:25.370Z,100998
2015-02-13T01:38:37.527Z,101010
2015-02-13T01:38:49.605Z,101001
2015-02-13T01:39:08.342Z,100995
2015-02-13T01:39:20.405Z,101007
2015-02-13T01:39:32.467Z,101001
2015-02-13T01:39:44.545Z,100993
2015-02-13T01:39:56.670Z,100998
2015-02-13T01:40:08.813Z,101001
2015-02-13T01:40:20.985Z,100998
2015-02-13T01:40:33.000Z,100990
2015-02-13T01:40:51.672Z,100998
2015-02-13T01:41:17.002Z,100995
2015-02-13T01:41:29.096Z,101004
2015-02-13T01:41:41.081Z,101001
2015-02-13T01:41:53.174Z,101001
2015-02-13T01:42:11.974Z,100993
2015-02-13T01:42:24.037Z,100998
2015-02-13T01:42:36.146Z,100998
2015-02-13T01:42:48.271Z,101007
2015-02-13T01:43:00.365Z,100998
2015-02-13T01:43:12.492Z,101004
2015-02-13T01:43:24.632Z,101004
2015-02-13T01:43:36.789Z,101001
2015-02-13T01:43:48.867Z,101001
2015-02-13T01:44:00.929Z,100993
2015-02-13T01:44:13.057Z,100995
2015-02-13T01:44:25.182Z,101001
2015-02-13T01:44:37.260Z,101004
2015-02-13T01:44:56.010Z,101004
2015-02-13T01:45:21.356Z,100993
2015-02-13T01:45:40.075Z,100990
2015-02-13T01:45:52.169Z,100998
2015-02-13T01:46:10.843Z,100993
2015-02-13T01:46:22.874Z,101007
2015-02-13T01:46:34.921Z,100990
2015-02-13T01:46:47.061Z,100990
2015-02-13T01:47:05.796Z,100990
2015-02-13T01:47:24.533Z,100996
2015-02-13T01:47:36.721Z,101001
2015-02-13T01:47:48.830Z,100998
2015-02-13T01:48:00.908Z,100990
2015-02-13T01:48:13.019Z,100993
2015-02-13T01:48:25.113Z,101004
2015-02-13T01:48:37.191Z,100996
2015-02-13T01:48:49.332Z,100993
2015-02-13T01:49:01.410Z,100996
2015-02-13T01:49:20.131Z,101001
2015-02-13T01:49:32.318Z,100993
2015-02-13T01:49:44.381Z,100996
2015-02-13T01:49:56.537Z,100990
2015-02-13T01:50:08.696Z,101001
2015-02-13T01:50:33.962Z,100996
2015-02-13T01:50:46.134Z,100990
2015-02-13T01:51:04.931Z,100995
2015-02-13T01:51:23.619Z,100990
2015-02-13T01:51:35.682Z,100993
2015-02-13T01:52:00.994Z,100993
2015-02-13T01:52:19.685Z,100990
2015-02-13T01:52:38.372Z,101001
2015-02-13T01:52:57.091Z,100995
2015-02-13T01:53:09.140Z,100985
2015-02-13T01:53:27.874Z,100998
2015-02-13T01:53:39.921Z,100990
2015-02-13T01:53:51.999Z,100990
2015-02-13T01:54:10.720Z,100996
2015-02-13T01:54:22.798Z,100993
2015-02-13T01:54:34.892Z,100987
2015-02-13T01:54:46.986Z,100990
2015-02-13T01:54:59.032Z,100987
2015-02-13T01:55:11.082Z,100990
2015-02-13T01:55:23.160Z,100998
2015-02-13T01:55:35.223Z,100982
2015-02-13T01:55:47.270Z,100987
2015-02-13T01:55:59.301Z,100987
2015-02-13T01:56:11.398Z,100987
2015-02-13T01:56:23.492Z,100985
2015-02-13T01:56:35.523Z,100990
2015-02-13T01:56:47.570Z,100995
2015-02-13T01:56:59.679Z,100979
2015-02-13T01:57:11.822Z,100990
2015-02-13T01:57:23.947Z,100993
2015-02-13T01:57:36.056Z,100995
2015-02-13T01:57:54.806Z,100990
2015-02-13T01:58:13.464Z,100993
2015-02-13T01:58:25.558Z,100990
2015-02-13T01:58:44.167Z,100985
2015-02-13T01:59:02.886Z,100982
2015-02-13T01:59:14.951Z,100976
2015-02-13T01:59:33.701Z,100998
2015-02-13T01:59:52.404Z,100979
2015-02-13T02:00:04.498Z,100982
2015-02-13T02:00:23.204Z,100987
2015-02-13T02:00:35.704Z,100990
2015-02-13T02:00:47.766Z,100990
2015-02-13T02:00:59.813Z,100979
2015-02-13T02:01:18.487Z,100976
2015-02-13T02:01:30.581Z,100985
2015-02-13T02:01:42.628Z,100979
2015-02-13T02:01:54.784Z,100982
2015-02-13T02:02:06.846Z,100979
2015-02-13T02:02:18.959Z,100979
2015-02-13T02:02:31.021Z,100979
2015-02-13T02:02:49.771Z,100976
2015-02-13T02:03:01.818Z,100976
2015-02-13T02:03:13.912Z,100979
2015-02-13T02:03:25.975Z,100982
2015-02-13T02:03:38.053Z,100987
2015-02-13T02:03:50.178Z,100971
2015-02-13T02:04:08.897Z,100985
2015-02-13T02:04:20.994Z,100982
2015-02-13T02:04:33.166Z,100985
2015-02-13T02:04:45.275Z,100985
2015-02-13T02:04:57.338Z,100982
2015-02-13T02:05:09.400Z,100985
2015-02-13T02:05:21.527Z,100979
2015-02-13T02:05:33.683Z,100993
2015-02-13T02:05:45.777Z,100987
2015-02-13T02:05:57.824Z,100985
2015-02-13T02:06:09.918Z,100982
2015-02-13T02:06:21.983Z,100979
2015-02-13T02:06:34.077Z,100979
2015-02-13T02:06:52.718Z,100976
2015-02-13T02:07:04.874Z,100979
2015-02-13T02:07:16.970Z,100985
2015-02-13T02:07:35.673Z,100990
2015-02-13T02:07:47.720Z,100985
2015-02-13T02:07:59.751Z,100982
2015-02-13T02:08:18.409Z,100979
2015-02-13T02:08:30.472Z,100979
2015-02-13T02:08:42.472Z,100976
2015-02-13T02:08:54.534Z,100985
2015-02-13T02:09:06.597Z,100982
2015-02-13T02:09:25.364Z,100979
2015-02-13T02:09:44.099Z,100985
2015-02-13T02:10:02.849Z,100990
2015-02-13T02:10:15.021Z,100990
2015-02-13T02:10:27.070Z,100985
2015-02-13T02:10:39.211Z,100979
2015-02-13T02:10:51.274Z,100973
2015-02-13T02:11:10.664Z,100976
2015-02-13T02:11:22.760Z,100982
2015-02-13T02:11:34.869Z,100976
2015-02-13T02:11:46.979Z,100976
2015-02-13T02:11:59.151Z,100985
2015-02-13T02:12:17.934Z,100973
2015-02-13T02:12:30.028Z,100982
2015-02-13T02:12:42.074Z,100973
2015-02-13T02:12:54.199Z,100979
2015-02-13T02:13:12.887Z,100982
2015-02-13T02:13:24.937Z,100979
2015-02-13T02:13:37.015Z,100979
2015-02-13T02:13:49.202Z,100973
2015-02-13T02:14:01.327Z,100979
2015-02-13T02:14:26.720Z,100971
2015-02-13T02:14:38.767Z,100985
2015-02-13T02:14:50.829Z,100965
2015-02-13T02:15:02.923Z,100976
2015-02-13T02:15:15.033Z,100968
2015-02-13T02:15:27.175Z,100971
2015-02-13T02:15:39.222Z,100973
2015-02-13T02:15:51.300Z,100976
2015-02-13T02:16:03.394Z,100971
2015-02-13T02:16:22.116Z,100962
2015-02-13T02:16:34.163Z,100971
2015-02-13T02:16:46.303Z,100971
2015-02-13T02:16:58.381Z,100971
2015-02-13T02:17:10.475Z,100979
2015-02-13T02:17:22.602Z,100971
2015-02-13T02:17:34.727Z,100971
2015-02-13T02:17:46.868Z,100962
2015-02-13T02:18:05.508Z,100968
2015-02-13T02:18:24.213Z,100968
2015-02-13T02:18:36.245Z,100959
2015-02-13T02:18:48.745Z,100968
2015-02-13T02:19:00.854Z,100968
2015-02-13T02:19:12.979Z,100956
2015-02-13T02:19:25.060Z,100968
2015-02-13T02:19:37.107Z,100965
2015-02-13T02:19:49.170Z,100968
2015-02-13T02:20:07.873Z,100973
2015-02-13T02:20:19.951Z,100968
2015-02-13T02:20:38.672Z,100971
2015-02-13T02:20:57.390Z,100976
2015-02-13T02:21:09.547Z,100968
2015-02-13T02:21:28.221Z,100976
2015-02-13T02:21:40.721Z,100971
2015-02-13T02:21:52.815Z,100965
2015-02-13T02:22:04.893Z,100973
2015-02-13T02:22:16.925Z,100985
2015-02-13T02:22:29.052Z,100973
2015-02-13T02:22:41.083Z,100971
2015-02-13T02:22:59.817Z,100971
2015-02-13T02:23:18.567Z,100979
2015-02-13T02:23:30.647Z,100976
2015-02-13T02:23:42.725Z,100971
2015-02-13T02:23:54.804Z,100968
2015-02-13T02:24:20.179Z,100968
2015-02-13T02:24:38.899Z,100962
2015-02-13T02:24:50.993Z,100962
2015-02-13T02:25:09.727Z,100968
2015-02-13T02:25:21.696Z,100971
2015-02-13T02:25:33.777Z,100979
2015-02-13T02:25:45.902Z,100973
2015-02-13T02:25:57.949Z,100962
2015-02-13T02:26:10.027Z,100973
2015-02-13T02:26:22.074Z,100976
2015-02-13T02:26:34.154Z,100973
2015-02-13T02:26:46.295Z,100979
2015-02-13T02:26:58.373Z,100979
2015-02-13T02:27:10.467Z,100973
2015-02-13T02:27:22.529Z,100973
2015-02-13T02:27:34.594Z,100971
2015-02-13T02:27:53.313Z,100971
2015-02-13T02:28:05.391Z,100968
2015-02-13T02:28:17.453Z,100973
2015-02-13T02:28:36.143Z,100970
2015-02-13T02:28:48.190Z,100976
2015-02-13T02:29:00.315Z,100970
2015-02-13T02:29:12.377Z,100968
2015-02-13T02:29:24.471Z,100965
2015-02-13T02:29:36.551Z,100968
2015-02-13T02:29:55.285Z,100970
2015-02-13T02:30:07.348Z,100973
2015-02-13T02:30:19.442Z,100968
2015-02-13T02:30:31.570Z,100970
2015-02-13T02:30:50.335Z,100970
2015-02-13T02:31:02.366Z,100971
2015-02-13T02:31:14.523Z,100965
2015-02-13T02:31:26.695Z,100971
2015-02-13T02:31:38.776Z,100973
2015-02-13T02:31:50.869Z,100965
2015-02-13T02:32:02.948Z,100956
2015-02-13T02:32:15.088Z,100962
2015-02-13T02:32:27.588Z,100962
2015-02-13T02:32:39.700Z,100965
2015-02-13T02:32:51.825Z,100965
2015-02-13T02:33:03.918Z,100976
2015-02-13T02:33:15.981Z,100971
2015-02-13T02:33:34.655Z,100971
2015-02-13T02:33:53.405Z,100968
2015-02-13T02:34:18.670Z,100971
2015-02-13T02:34:30.705Z,100965
2015-02-13T02:34:49.408Z,100965
2015-02-13T02:35:01.470Z,100968
2015-02-13T02:35:20.236Z,100968
2015-02-13T02:35:32.316Z,100962
2015-02-13T02:35:44.332Z,100965
2015-02-13T02:35:56.378Z,100965
2015-02-13T02:36:08.503Z,100968
2015-02-13T02:36:20.488Z,100962
2015-02-13T02:36:32.599Z,100959
2015-02-13T02:36:44.693Z,100956
2015-02-13T02:36:56.802Z,100950
2015-02-13T02:37:16.005Z,100959
2015-02-13T02:37:34.664Z,100976
2015-02-13T02:37:46.757Z,100965
2015-02-13T02:37:58.789Z,100956
2015-02-13T02:38:10.867Z,100956
2015-02-13T02:38:22.961Z,100965
2015-02-13T02:38:34.947Z,100965
2015-02-13T02:38:47.009Z,100965
2015-02-13T02:39:05.791Z,100965
2015-02-13T02:39:17.822Z,100956
2015-02-13T02:39:36.559Z,100962
2015-02-13T02:39:48.653Z,100953
2015-02-13T02:40:13.981Z,100962
2015-02-13T02:40:26.059Z,100959
2015-02-13T02:40:44.780Z,100962
2015-02-13T02:40:56.905Z,100968
2015-02-13T02:41:09.046Z,100965
2015-02-13T02:41:21.124Z,100956
2015-02-13T02:41:39.814Z,100956
2015-02-13T02:41:51.955Z,100959
2015-02-13T02:42:04.455Z,100959
2015-02-13T02:42:23.174Z,100950
2015-02-13T02:42:35.223Z,100947
2015-02-13T02:42:47.301Z,100953
2015-02-13T02:42:59.410Z,100947
2015-02-13T02:43:11.566Z,100956
2015-02-13T02:43:23.738Z,100945
2015-02-13T02:43:35.788Z,100950
2015-02-13T02:43:54.429Z,100950
2015-02-13T02:44:06.538Z,100950
2015-02-13T02:44:18.647Z,100953
2015-02-13T02:44:37.321Z,100950
2015-02-13T02:44:49.462Z,100947
2015-02-13T02:45:01.665Z,100956
2015-02-13T02:45:13.712Z,100953
2015-02-13T02:45:25.774Z,100945
2015-02-13T02:45:44.495Z,100950
2015-02-13T02:46:03.167Z,100953
2015-02-13T02:46:15.214Z,100947
2015-02-13T02:46:27.230Z,100950
2015-02-13T02:46:45.936Z,100950
2015-02-13T02:47:04.717Z,100945
2015-02-13T02:47:23.342Z,100950
2015-02-13T02:47:35.360Z,100947
2015-02-13T02:47:47.328Z,100936
2015-02-13T02:47:59.281Z,100936
2015-02-13T02:48:11.313Z,100942
2015-02-13T02:48:23.297Z,100930
2015-02-13T02:48:41.893Z,100939
2015-02-13T02:48:53.940Z,100933
2015-02-13T02:49:05.987Z,100933
2015-02-13T02:49:18.018Z,100939
2015-02-13T02:49:30.002Z,100942
2015-02-13T02:49:48.629Z,100942
2015-02-13T02:50:00.535Z,100945
2015-02-13T02:50:12.535Z,100942
2015-02-13T02:50:24.535Z,100936
2015-02-13T02:50:43.163Z,100942
2015-02-13T02:50:55.179Z,100945
2015-02-13T02:51:07.195Z,100933
2015-02-13T02:51:19.195Z,100936
2015-02-13T02:51:37.822Z,100945
2015-02-13T02:51:56.415Z,100939
2015-02-13T02:52:15.009Z,100942
2015-02-13T02:52:26.947Z,100930
2015-02-13T02:52:45.528Z,100939
2015-02-13T02:52:57.606Z,100939
2015-02-13T02:53:09.481Z,100947
2015-02-13T02:53:21.497Z,100939
2015-02-13T02:53:40.092Z,100942
2015-02-13T02:53:52.045Z,100953
2015-02-13T02:54:04.124Z,100947